createdAt,value
2022-08-05T00:00:17.016Z,1.23
2022-08-05T00:02:51.532Z,1.00
2022-08-05T00:06:01.719Z,1.40
2022-08-05T00:08:32.966Z,1.48
2022-08-05T00:10:57.316Z,1.42
2022-08-05T00:13:39.428Z,2.15
2022-08-05T00:16:12.593Z,1.40
2022-08-05T00:18:42.153Z,1.13
2022-08-05T00:21:10.620Z,1.40
2022-08-05T00:23:46.345Z,1.17
2022-08-05T00:26:22.159Z,1.35
2022-08-05T00:28:50.293Z,1.20
2022-08-05T00:31:54.379Z,1.25
2022-08-05T00:34:56.350Z,1.25
2022-08-05T00:37:11.836Z,1.10
2022-08-05T00:39:44.191Z,1.35
2022-08-05T00:42:32.707Z,1.30
2022-08-05T00:45:00.923Z,1.10
2022-08-05T00:47:31.681Z,1.50
2022-08-05T00:50:18.228Z,1.27
2022-08-05T00:52:49.052Z,1.40
2022-08-05T00:55:17.024Z,1.27
2022-08-05T00:57:58.399Z,1.13
2022-08-05T01:00:27.945Z,1.30
2022-08-05T01:02:57.649Z,1.27
2022-08-05T01:05:27.964Z,1.50
2022-08-05T01:08:39.225Z,1.20
2022-08-05T01:10:52.376Z,1.60
2022-08-05T01:13:27.354Z,1.40
2022-08-05T01:16:15.325Z,1.20
2022-08-05T01:18:59.275Z,1.27
2022-08-05T01:21:52.583Z,1.50
2022-08-05T01:24:28.017Z,1.55
2022-08-05T01:27:01.201Z,1.23
2022-08-05T01:29:48.687Z,1.40
2022-08-05T01:32:18.363Z,1.33
2022-08-05T01:34:48.938Z,1.60
2022-08-05T01:37:25.243Z,1.42
2022-08-05T01:39:59.131Z,1.33
2022-08-05T01:42:27.956Z,1.48
2022-08-05T01:44:59.202Z,1.40
2022-08-05T01:47:38.752Z,1.65
2022-08-05T01:50:15.017Z,1.70
2022-08-05T01:52:44.546Z,1.55
2022-08-05T01:55:19.338Z,2.00
2022-08-05T01:58:10.131Z,1.45
2022-08-05T02:00:39.700Z,1.83
2022-08-05T02:03:29.043Z,1.60
2022-08-05T02:06:03.413Z,1.45
2022-08-05T02:08:41.009Z,1.70
2022-08-05T02:11:24.092Z,1.73
2022-08-05T02:14:03.938Z,1.80
2022-08-05T02:16:36.003Z,1.80
2022-08-05T02:19:08.450Z,1.65
2022-08-05T02:21:43.395Z,1.70
2022-08-05T02:24:18.307Z,1.67
2022-08-05T02:26:51.908Z,1.63
2022-08-05T02:29:26.210Z,1.70
2022-08-05T02:32:23.919Z,1.95
2022-08-05T02:34:58.480Z,1.88
2022-08-05T02:37:31.981Z,2.00
2022-08-05T02:40:00.283Z,1.50
2022-08-05T02:42:31.861Z,1.85
2022-08-05T02:45:03.990Z,2.30
2022-08-05T02:47:58.713Z,1.90
2022-08-05T02:50:24.110Z,2.00
2022-08-05T02:52:52.343Z,1.90
2022-08-05T02:55:53.940Z,1.90
2022-08-05T02:58:13.295Z,1.67
2022-08-05T03:00:41.650Z,1.90
2022-08-05T03:03:16.777Z,2.08
2022-08-05T03:06:55.504Z,2.10
2022-08-05T03:08:33.844Z,2.22
2022-08-05T03:11:57.079Z,2.10
2022-08-05T03:13:52.172Z,2.20
2022-08-05T03:16:31.751Z,1.90
2022-08-05T03:19:01.510Z,2.15
2022-08-05T03:21:41.686Z,1.90
2022-08-05T03:24:17.557Z,1.75
2022-08-05T03:26:55.604Z,2.17
2022-08-05T03:29:23.575Z,2.00
2022-08-05T03:31:57.072Z,1.70
2022-08-05T03:34:30.019Z,2.17
2022-08-05T03:36:57.987Z,2.10
2022-08-05T03:39:26.983Z,2.05
2022-08-05T03:41:56.299Z,2.22
2022-08-05T03:44:24.508Z,2.15
2022-08-05T03:46:52.525Z,2.20
2022-08-05T03:49:20.433Z,1.95
2022-08-05T03:52:48.514Z,1.83
2022-08-05T03:56:01.782Z,2.15
2022-08-05T03:57:41.973Z,2.30
2022-08-05T04:00:12.536Z,1.92
2022-08-05T04:02:52.100Z,1.92
2022-08-05T04:05:27.921Z,2.17
2022-08-05T04:08:03.503Z,2.30
2022-08-05T04:10:38.127Z,2.10
2022-08-05T04:13:07.107Z,2.30
2022-08-05T04:15:36.291Z,2.53
2022-08-05T04:18:07.411Z,2.42
2022-08-05T04:20:37.864Z,2.40
2022-08-05T04:23:12.426Z,2.15
2022-08-05T04:26:00.280Z,2.47
2022-08-05T04:28:31.652Z,2.10
2022-08-05T04:31:00.862Z,2.50
2022-08-05T04:33:54.697Z,2.50
2022-08-05T04:36:45.409Z,2.30
2022-08-05T04:39:07.198Z,2.25
2022-08-05T04:41:37.879Z,2.50
2022-08-05T04:44:09.298Z,2.30
2022-08-05T04:46:37.687Z,2.35
2022-08-05T04:49:06.217Z,2.20
2022-08-05T04:51:42.392Z,2.30
2022-08-05T04:54:14.802Z,2.83
2022-08-05T04:56:43.647Z,2.40
2022-08-05T04:59:21.406Z,2.17
2022-08-05T05:02:35.445Z,2.25
2022-08-05T05:04:43.926Z,2.70
2022-08-05T05:07:12.572Z,2.60
2022-08-05T05:09:45.676Z,2.65
2022-08-05T05:12:13.757Z,2.50
2022-08-05T05:14:49.578Z,2.60
2022-08-05T05:17:23.683Z,2.33
2022-08-05T05:19:54.407Z,2.42
2022-08-05T05:22:24.576Z,2.47
2022-08-05T05:24:57.429Z,2.97
2022-08-05T05:27:44.395Z,2.30
2022-08-05T05:30:15.331Z,2.50
2022-08-05T05:33:00.191Z,2.58
2022-08-05T05:35:34.501Z,2.33
2022-08-05T05:38:09.247Z,2.75
2022-08-05T05:40:49.460Z,2.60
2022-08-05T05:43:27.662Z,2.50
2022-08-05T05:46:13.723Z,2.78
2022-08-05T05:48:44.698Z,2.53
2022-08-05T05:51:19.286Z,2.85
2022-08-05T05:53:57.624Z,2.83
2022-08-05T05:56:32.901Z,2.63
2022-08-05T05:59:03.260Z,2.65
2022-08-05T06:01:37.011Z,2.83
2022-08-05T06:04:07.180Z,2.70
2022-08-05T06:06:35.394Z,3.08
2022-08-05T06:09:04.046Z,3.08
2022-08-05T06:11:33.659Z,3.20
2022-08-05T06:14:02.098Z,3.30
2022-08-05T06:16:36.627Z,2.67
2022-08-05T06:19:07.407Z,2.72
2022-08-05T06:21:37.658Z,2.53
2022-08-05T06:24:07.709Z,2.90
2022-08-05T06:26:51.016Z,2.97
2022-08-05T06:29:25.378Z,3.38
2022-08-05T06:32:24.993Z,2.85
2022-08-05T06:34:56.953Z,3.13
2022-08-05T06:37:56.301Z,3.53
2022-08-05T06:40:13.981Z,3.20
2022-08-05T06:42:48.320Z,3.05
2022-08-05T06:45:20.688Z,2.60
2022-08-05T06:48:36.742Z,3.00
2022-08-05T06:50:38.448Z,3.20
2022-08-05T06:53:19.625Z,2.80
2022-08-05T06:55:54.314Z,3.35
2022-08-05T06:58:35.334Z,3.35
2022-08-05T07:01:05.990Z,2.67
2022-08-05T07:03:34.414Z,2.90
2022-08-05T07:06:06.053Z,3.50
2022-08-05T07:08:42.820Z,3.17
2022-08-05T07:11:15.473Z,2.97
2022-08-05T07:14:02.774Z,2.65
2022-08-05T07:18:01.400Z,2.90
2022-08-05T07:20:31.012Z,3.10
2022-08-05T07:22:35.789Z,3.05
2022-08-05T07:25:23.057Z,3.03
2022-08-05T07:27:58.398Z,2.92
2022-08-05T07:30:34.767Z,3.05
2022-08-05T07:33:09.934Z,2.97
2022-08-05T07:36:03.941Z,3.33
2022-08-05T07:38:33.720Z,3.08
2022-08-05T07:42:09.069Z,2.95
2022-08-05T07:43:52.044Z,3.25
2022-08-05T07:46:25.549Z,3.10
2022-08-05T07:49:02.984Z,2.38
2022-08-05T07:51:37.174Z,3.10
2022-08-05T07:54:06.410Z,2.80
2022-08-05T07:57:02.704Z,2.95
2022-08-05T07:59:38.691Z,2.70
2022-08-05T08:02:15.274Z,3.00
2022-08-05T08:04:45.621Z,2.85
2022-08-05T08:07:13.862Z,2.80
2022-08-05T08:09:42.071Z,2.70
2022-08-05T08:12:30.561Z,2.75
2022-08-05T08:15:02.282Z,3.15
2022-08-05T08:17:33.008Z,3.25
2022-08-05T08:20:42.613Z,2.85
2022-08-05T08:22:55.799Z,3.28
2022-08-05T08:25:26.983Z,3.05
2022-08-05T08:28:18.968Z,2.70
2022-08-05T08:31:00.617Z,3.25
2022-08-05T08:33:30.380Z,2.90
2022-08-05T08:36:38.670Z,2.70
2022-08-05T08:38:55.935Z,3.40
2022-08-05T08:41:50.582Z,2.67
2022-08-05T08:45:19.601Z,3.63
2022-08-05T08:47:04.024Z,3.15
2022-08-05T08:50:12.845Z,2.95
2022-08-05T08:52:43.396Z,3.20
2022-08-05T08:56:01.673Z,2.60
2022-08-05T08:58:08.708Z,2.50
2022-08-05T09:00:36.966Z,2.83
2022-08-05T09:03:06.908Z,2.40
2022-08-05T09:05:38.257Z,3.03
2022-08-05T09:08:26.586Z,2.80
2022-08-05T09:10:55.699Z,2.40
2022-08-05T09:13:23.726Z,2.30
2022-08-05T09:15:51.869Z,2.47
2022-08-05T09:18:19.852Z,2.60
2022-08-05T09:20:51.372Z,2.78
2022-08-05T09:23:21.536Z,2.30
2022-08-05T09:26:03.368Z,2.67
2022-08-05T09:28:34.978Z,2.45
2022-08-05T09:32:38.697Z,2.40
2022-08-05T09:33:56.822Z,2.28
2022-08-05T09:36:33.399Z,2.10
2022-08-05T09:39:02.505Z,2.40
2022-08-05T09:41:32.834Z,2.30
2022-08-05T09:44:03.453Z,2.17
2022-08-05T09:46:36.872Z,2.28
2022-08-05T09:49:18.950Z,2.78
2022-08-05T09:51:49.702Z,2.40
2022-08-05T09:54:21.251Z,2.35
2022-08-05T09:56:57.683Z,2.35
2022-08-05T09:59:29.521Z,2.70
2022-08-05T10:02:03.618Z,2.08
2022-08-05T10:04:38.572Z,2.47
2022-08-05T10:07:19.984Z,2.30
2022-08-05T10:10:04.363Z,2.33
2022-08-05T10:12:49.170Z,2.10
2022-08-05T10:15:20.269Z,2.53
2022-08-05T10:18:04.758Z,2.50
2022-08-05T10:20:33.736Z,2.53
2022-08-05T10:23:03.558Z,1.90
2022-08-05T10:25:37.111Z,2.75
2022-08-05T10:28:13.896Z,2.33
2022-08-05T10:32:50.501Z,2.55
2022-08-05T10:33:35.364Z,2.70
2022-08-05T10:36:05.235Z,2.40
2022-08-05T10:38:37.069Z,2.03
2022-08-05T10:41:09.066Z,2.60
2022-08-05T10:43:45.737Z,2.30
2022-08-05T10:46:15.011Z,2.53
2022-08-05T10:48:52.933Z,2.50
2022-08-05T10:51:29.026Z,3.65
2022-08-05T10:54:01.943Z,3.05
2022-08-05T10:56:49.308Z,2.63
2022-08-05T11:00:02.766Z,2.88
2022-08-05T11:02:14.232Z,2.72
2022-08-05T11:04:58.094Z,2.60
2022-08-05T11:07:32.845Z,2.90
2022-08-05T11:10:27.367Z,2.83
2022-08-05T11:12:56.075Z,3.10
2022-08-05T11:16:01.119Z,2.63
2022-08-05T11:18:25.480Z,2.65
2022-08-05T11:20:53.819Z,2.80
2022-08-05T11:24:02.733Z,2.97
2022-08-05T11:26:29.040Z,2.80
2022-08-05T11:29:12.331Z,3.10
2022-08-05T11:31:58.023Z,2.97
2022-08-05T11:34:39.326Z,3.03
2022-08-05T11:38:27.962Z,2.80
2022-08-05T11:40:02.944Z,3.08
2022-08-05T11:42:33.017Z,3.58
2022-08-05T11:45:14.298Z,3.10
2022-08-05T11:47:55.230Z,3.13
2022-08-05T11:50:23.328Z,4.07
2022-08-05T11:52:57.756Z,4.15
2022-08-05T11:55:31.752Z,3.78
2022-08-05T11:58:09.298Z,3.28
2022-08-05T12:00:41.266Z,4.30
2022-08-05T12:03:28.797Z,4.43
2022-08-05T12:06:00.047Z,4.30
2022-08-05T12:08:28.014Z,3.42
2022-08-05T12:10:57.060Z,2.90
2022-08-05T12:13:47.970Z,3.33
2022-08-05T12:16:19.275Z,3.20
2022-08-05T12:18:52.739Z,3.25
2022-08-05T12:21:23.804Z,3.47
2022-08-05T12:23:56.099Z,3.50
2022-08-05T12:26:24.509Z,3.45
2022-08-05T12:28:55.590Z,3.20
2022-08-05T12:31:33.038Z,3.47
2022-08-05T12:34:20.547Z,3.50
2022-08-05T12:36:50.963Z,3.28
2022-08-05T12:39:19.848Z,3.40
2022-08-05T12:41:48.756Z,3.15
2022-08-05T12:44:21.614Z,3.10
2022-08-05T12:47:00.788Z,2.97
2022-08-05T12:50:04.009Z,4.00
2022-08-05T12:52:35.355Z,3.30
2022-08-05T12:55:17.661Z,3.75
2022-08-05T12:58:48.268Z,3.13
2022-08-05T13:02:02.758Z,3.10
2022-08-05T13:03:32.517Z,2.67
2022-08-05T13:06:01.163Z,3.17
2022-08-05T13:08:30.183Z,3.08
2022-08-05T13:11:00.838Z,3.10
2022-08-05T13:14:05.834Z,3.05
2022-08-05T13:16:25.323Z,3.25
2022-08-05T13:18:58.458Z,3.72
2022-08-05T13:21:28.153Z,3.42
2022-08-05T13:24:08.687Z,3.05
2022-08-05T13:26:37.012Z,3.10
2022-08-05T13:29:05.370Z,3.05
2022-08-05T13:32:05.024Z,3.33
2022-08-05T13:34:25.867Z,3.10
2022-08-05T13:36:54.490Z,3.60
2022-08-05T13:40:13.110Z,3.45
2022-08-05T13:42:14.773Z,4.07
2022-08-05T13:44:45.402Z,3.33
2022-08-05T13:47:35.971Z,3.30
2022-08-05T13:50:09.530Z,3.25
2022-08-05T13:52:41.201Z,3.65
2022-08-05T13:55:09.876Z,3.17
2022-08-05T13:57:51.288Z,2.72
2022-08-05T14:00:27.177Z,3.03
2022-08-05T14:02:57.626Z,2.80
2022-08-05T14:05:48.166Z,3.28
2022-08-05T14:08:21.429Z,2.60
2022-08-05T14:11:08.085Z,2.67
2022-08-05T14:13:44.173Z,3.22
2022-08-05T14:16:16.959Z,2.97
2022-08-05T14:18:46.669Z,3.00
2022-08-05T14:22:07.084Z,2.95
2022-08-05T14:24:02.538Z,2.58
2022-08-05T14:26:38.475Z,2.83
2022-08-05T14:29:16.649Z,2.97
2022-08-05T14:32:02.580Z,2.65
2022-08-05T14:34:35.178Z,3.05
2022-08-05T14:37:03.824Z,2.70
2022-08-05T14:39:50.138Z,3.15
2022-08-05T14:42:29.399Z,2.67
2022-08-05T14:44:57.538Z,2.83
2022-08-05T14:48:03.271Z,4.05
2022-08-05T14:50:19.019Z,2.80
2022-08-05T14:52:53.524Z,2.80
2022-08-05T14:55:25.914Z,2.53
2022-08-05T14:58:11.390Z,3.17
2022-08-05T15:00:58.665Z,2.72
2022-08-05T15:03:34.042Z,3.00
2022-08-05T15:06:15.146Z,2.53
2022-08-05T15:09:01.585Z,2.40
2022-08-05T15:11:51.983Z,2.67
2022-08-05T15:14:33.406Z,2.72
2022-08-05T15:17:04.251Z,2.72
2022-08-05T15:19:32.676Z,2.60
2022-08-05T15:22:02.319Z,2.53
2022-08-05T15:24:30.283Z,3.13
2022-08-05T15:26:58.789Z,2.63
2022-08-05T15:29:29.759Z,2.78
2022-08-05T15:32:03.319Z,3.15
2022-08-05T15:34:34.112Z,3.17
2022-08-05T15:37:06.249Z,4.15
2022-08-05T15:41:04.619Z,3.65
2022-08-05T15:42:54.008Z,3.53
2022-08-05T15:45:11.624Z,2.70
2022-08-05T15:47:39.766Z,2.80
2022-08-05T15:50:08.364Z,2.58
2022-08-05T15:52:53.498Z,2.22
2022-08-05T15:55:24.681Z,2.10
2022-08-05T15:58:16.426Z,2.67
2022-08-05T16:01:11.753Z,2.83
2022-08-05T16:03:33.897Z,1.85
2022-08-05T16:06:02.255Z,2.17
2022-08-05T16:08:31.769Z,2.10
2022-08-05T16:11:00.248Z,2.15
2022-08-05T16:13:34.428Z,2.33
2022-08-05T16:16:03.513Z,2.17
2022-08-05T16:18:32.971Z,2.22
2022-08-05T16:21:04.327Z,2.00
2022-08-05T16:23:53.851Z,2.13
2022-08-05T16:26:26.400Z,2.08
2022-08-05T16:28:55.105Z,2.08
2022-08-05T16:31:23.531Z,2.53
2022-08-05T16:33:52.262Z,2.05
2022-08-05T16:36:23.955Z,2.17
2022-08-05T16:38:54.818Z,2.28
2022-08-05T16:42:13.843Z,2.20
2022-08-05T16:44:11.970Z,2.33
2022-08-05T16:46:41.113Z,2.20
2022-08-05T16:49:09.989Z,1.90
2022-08-05T16:51:50.386Z,2.42
2022-08-05T16:54:28.655Z,2.38
2022-08-05T16:57:00.005Z,2.15
2022-08-05T16:59:27.946Z,2.42
2022-08-05T17:01:59.490Z,2.20
2022-08-05T17:04:29.009Z,2.30
2022-08-05T17:07:00.403Z,2.22
2022-08-05T17:09:31.062Z,3.08
2022-08-05T17:12:22.776Z,2.50
2022-08-05T17:15:07.551Z,2.38
2022-08-05T17:17:42.526Z,2.30
2022-08-05T17:20:14.517Z,2.13
2022-08-05T17:22:42.888Z,2.72
2022-08-05T17:25:33.897Z,2.08
2022-08-05T17:28:02.435Z,2.47
2022-08-05T17:30:30.415Z,1.73
2022-08-05T17:32:58.461Z,2.33
2022-08-05T17:35:26.432Z,2.03
2022-08-05T17:38:05.003Z,2.22
2022-08-05T17:40:34.560Z,2.15
2022-08-05T17:43:03.015Z,1.98
2022-08-05T17:45:38.589Z,2.30
2022-08-05T17:48:08.200Z,2.38
2022-08-05T17:50:36.306Z,2.50
2022-08-05T17:53:05.140Z,2.13
2022-08-05T17:55:39.667Z,2.30
2022-08-05T17:58:11.247Z,2.40
2022-08-05T18:00:45.561Z,2.67
2022-08-05T18:03:33.251Z,2.42
2022-08-05T18:06:11.100Z,2.15
2022-08-05T18:08:44.509Z,2.15
2022-08-05T18:11:23.228Z,3.03
2022-08-05T18:13:52.982Z,2.00
2022-08-05T18:16:21.051Z,2.33
2022-08-05T18:18:50.041Z,2.17
2022-08-05T18:21:20.020Z,2.20
2022-08-05T18:23:53.876Z,2.40
2022-08-05T18:26:27.785Z,2.13
2022-08-05T18:28:57.852Z,2.25
2022-08-05T18:31:33.747Z,2.03
2022-08-05T18:34:03.470Z,2.35
2022-08-05T18:36:35.492Z,1.88
2022-08-05T18:39:03.609Z,2.17
2022-08-05T18:41:58.004Z,1.90
2022-08-05T18:44:33.391Z,2.40
2022-08-05T18:47:03.942Z,2.30
2022-08-05T18:49:58.453Z,2.13
2022-08-05T18:52:36.012Z,2.20
2022-08-05T18:55:05.336Z,1.98
2022-08-05T18:57:43.013Z,2.15
2022-08-05T19:00:20.240Z,1.88
2022-08-05T19:02:49.023Z,2.20
2022-08-05T19:06:13.218Z,2.50
2022-08-05T19:08:08.102Z,2.30
2022-08-05T19:10:41.728Z,2.45
2022-08-05T19:13:15.999Z,2.10
2022-08-05T19:15:57.485Z,2.10
2022-08-05T19:18:28.785Z,2.10
2022-08-05T19:20:56.928Z,2.27
2022-08-05T19:24:08.141Z,2.43
2022-08-05T19:26:14.024Z,2.30
2022-08-05T19:28:44.063Z,2.50
2022-08-05T19:31:17.901Z,2.30
2022-08-05T19:33:48.293Z,2.23
2022-08-05T19:36:24.420Z,2.30
2022-08-05T19:38:52.443Z,2.20
2022-08-05T19:41:22.208Z,2.20
2022-08-05T19:44:13.426Z,2.30
2022-08-05T19:46:43.509Z,2.77
2022-08-05T19:49:12.493Z,2.33
2022-08-05T19:52:08.545Z,2.53
2022-08-05T19:54:34.261Z,2.93
2022-08-05T19:57:06.242Z,2.33
2022-08-05T19:59:55.268Z,2.27
2022-08-05T20:02:26.997Z,2.10
2022-08-05T20:04:58.597Z,2.30
2022-08-05T20:07:46.771Z,2.40
2022-08-05T20:10:15.451Z,2.37
2022-08-05T20:12:48.135Z,2.23
2022-08-05T20:15:22.981Z,1.97
2022-08-05T20:18:09.705Z,2.23
2022-08-05T20:20:39.229Z,3.37
2022-08-05T20:23:07.594Z,2.57
2022-08-05T20:25:40.115Z,2.13
2022-08-05T20:28:13.632Z,2.10
2022-08-05T20:30:43.295Z,2.13
2022-08-05T20:33:11.279Z,2.85
2022-08-05T20:35:45.646Z,2.00
2022-08-05T20:38:20.181Z,2.17
2022-08-05T20:40:56.387Z,2.30
2022-08-05T20:43:57.528Z,1.98
2022-08-05T20:46:18.373Z,2.00
2022-08-05T20:48:51.082Z,1.85
2022-08-05T20:51:19.263Z,2.08
2022-08-05T20:53:56.714Z,2.17
2022-08-05T20:56:31.882Z,1.90
2022-08-05T20:59:13.978Z,2.10
2022-08-05T21:01:49.628Z,2.22
2022-08-05T21:04:18.690Z,2.13
2022-08-05T21:06:46.637Z,2.30
2022-08-05T21:09:15.969Z,2.25
2022-08-05T21:12:07.064Z,2.13
2022-08-05T21:14:35.334Z,2.15
2022-08-05T21:17:06.020Z,2.47
2022-08-05T21:19:46.501Z,2.20
2022-08-05T21:22:18.526Z,2.07
2022-08-05T21:24:51.810Z,1.90
2022-08-05T21:27:25.269Z,1.90
2022-08-05T21:29:55.497Z,2.07
2022-08-05T21:32:27.156Z,1.97
2022-08-05T21:35:08.824Z,1.80
2022-08-05T21:37:47.307Z,1.87
2022-08-05T21:40:20.761Z,1.83
2022-08-05T21:42:48.904Z,2.00
2022-08-05T21:45:24.569Z,1.93
2022-08-05T21:47:58.065Z,2.00
2022-08-05T21:50:26.316Z,2.33
2022-08-05T21:52:59.165Z,1.70
2022-08-05T21:56:00.967Z,2.03
2022-08-05T21:58:20.622Z,2.33
2022-08-05T22:00:59.005Z,1.90
2022-08-05T22:03:48.513Z,1.90
2022-08-05T22:06:16.443Z,1.88
2022-08-05T22:08:52.117Z,1.80
2022-08-05T22:11:34.703Z,1.90
2022-08-05T22:14:19.827Z,2.10
2022-08-05T22:16:56.028Z,1.83
2022-08-05T22:20:02.703Z,1.70
2022-08-05T22:22:16.824Z,1.70
2022-08-05T22:25:18.049Z,1.90
2022-08-05T22:28:09.028Z,1.90
2022-08-05T22:30:56.500Z,1.50
2022-08-05T22:33:55.836Z,2.07
2022-08-05T22:36:15.407Z,2.03
2022-08-05T22:38:47.971Z,2.00
2022-08-05T22:42:05.009Z,1.87
2022-08-05T22:44:04.981Z,1.60
2022-08-05T22:46:33.297Z,1.70
2022-08-05T22:49:01.306Z,1.80
2022-08-05T22:52:06.019Z,1.87
2022-08-05T22:54:18.787Z,1.70
2022-08-05T22:56:51.633Z,1.80
2022-08-05T22:59:43.767Z,1.50
2022-08-05T23:02:09.709Z,1.47
2022-08-05T23:04:37.861Z,1.50
2022-08-05T23:07:07.528Z,1.67
2022-08-05T23:09:53.234Z,1.60
2022-08-05T23:12:24.620Z,1.53
2022-08-05T23:14:52.786Z,2.13
2022-08-05T23:17:34.656Z,1.60
2022-08-05T23:20:17.783Z,1.60
2022-08-05T23:22:48.213Z,2.30
2022-08-05T23:25:51.256Z,1.50
2022-08-05T23:28:06.936Z,1.97
2022-08-05T23:30:40.103Z,1.77
2022-08-05T23:33:15.956Z,2.37
2022-08-05T23:35:44.576Z,2.03
2022-08-05T23:38:13.908Z,1.50
2022-08-05T23:40:42.465Z,1.40
2022-08-05T23:43:24.758Z,1.80
2022-08-05T23:46:04.701Z,1.70
2022-08-05T23:48:32.690Z,1.73
2022-08-05T23:51:01.470Z,1.90
2022-08-05T23:53:46.545Z,1.87
2022-08-05T23:56:20.164Z,1.90
2022-08-05T23:58:55.476Z,2.00
